LERS/REU METAR and TAF weather

Enter ICAO airport designator
Station Type Date Time Source
LERS METAR 2022/01/27 23:00 UTC NOAA

LERS 272300Z AUTO 01005KT CAVOK 03/01 Q1029


Station Type Date Time Source
LERS Decoded METAR 2022/01/27 23:00 UTC NOAA

Reus / Aeropuerto, Spain (LERS) 41-09N 001-10E 76M
Jan 27, 2022 - 06:00 PM EST / 2022.01.27 2300 UTC
Wind: from the N (010 degrees) at 6 MPH (5 KT):0
Visibility: greater than 7 mile(s):0
Temperature: 37 F (3 C)
Dew Point: 33 F (1 C)
Relative Humidity: 86%
Pressure (altimeter): 30.39 in. Hg (1029 hPa)
ob: LERS 272300Z AUTO 01005KT CAVOK 03/01 Q1029
cycle: 23

Station Type Date Time Source
LERS TAF 2022/01/27 21:27 UTC NOAA

TAF LERS 272000Z 2721/2821 30004KT CAVOK TX19/2812Z TNM01/2806Z
TEMPO 2811/2817 26010KT

Example: see airport list